sensor_id;sensor_type;location;lat;lon;timestamp;temperature;humidity
76345;DHT22;65160;50.504;3.666;2023-03-13T00:00:58;10.83;94.07
76345;DHT22;65160;50.504;3.666;2023-03-13T00:03:24;10.86;94.07
76345;DHT22;65160;50.504;3.666;2023-03-13T00:05:55;10.93;94.07
76345;DHT22;65160;50.504;3.666;2023-03-13T00:08:20;10.99;93.89
76345;DHT22;65160;50.504;3.666;2023-03-13T00:10:46;11.02;93.81
76345;DHT22;65160;50.504;3.666;2023-03-13T00:13:11;11.05;93.64
76345;DHT22;65160;50.504;3.666;2023-03-13T00:15:37;11.07;93.67
76345;DHT22;65160;50.504;3.666;2023-03-13T00:18:03;11.13;93.45
76345;DHT22;65160;50.504;3.666;2023-03-13T00:20:28;11.19;93.27
76345;DHT22;65160;50.504;3.666;2023-03-13T00:22:54;11.23;93.22
76345;DHT22;65160;50.504;3.666;2023-03-13T00:25:19;11.26;93.16
76345;DHT22;65160;50.504;3.666;2023-03-13T00:27:45;11.31;93.05
76345;DHT22;65160;50.504;3.666;2023-03-13T00:30:11;11.34;93.01
76345;DHT22;65160;50.504;3.666;2023-03-13T00:32:44;11.38;92.72
76345;DHT22;65160;50.504;3.666;2023-03-13T00:35:11;11.44;92.51
76345;DHT22;65160;50.504;3.666;2023-03-13T00:37:36;11.44;92.63
76345;DHT22;65160;50.504;3.666;2023-03-13T00:40:03;11.50;92.37
76345;DHT22;65160;50.504;3.666;2023-03-13T00:42:29;11.53;92.40
76345;DHT22;65160;50.504;3.666;2023-03-13T00:44:54;11.57;92.21
76345;DHT22;65160;50.504;3.666;2023-03-13T00:47:20;11.57;92.17
76345;DHT22;65160;50.504;3.666;2023-03-13T00:49:45;11.62;92.17
76345;DHT22;65160;50.504;3.666;2023-03-13T00:52:11;11.67;91.85
76345;DHT22;65160;50.504;3.666;2023-03-13T00:54:36;11.71;91.66
76345;DHT22;65160;50.504;3.666;2023-03-13T00:57:02;11.74;91.58
76345;DHT22;65160;50.504;3.666;2023-03-13T00:59:27;11.77;91.62
76345;DHT22;65160;50.504;3.666;2023-03-13T01:01:53;11.74;91.76
76345;DHT22;65160;50.504;3.666;2023-03-13T01:04:18;11.74;91.77
76345;DHT22;65160;50.504;3.666;2023-03-13T01:06:44;11.75;92.07
76345;DHT22;65160;50.504;3.666;2023-03-13T01:09:13;11.72;92.39
76345;DHT22;65160;50.504;3.666;2023-03-13T01:11:40;11.64;92.98
76345;DHT22;65160;50.504;3.666;2023-03-13T01:14:09;11.58;93.54
76345;DHT22;65160;50.504;3.666;2023-03-13T01:16:36;11.62;93.71
76345;DHT22;65160;50.504;3.666;2023-03-13T01:19:11;11.60;93.78
76345;DHT22;65160;50.504;3.666;2023-03-13T01:21:37;11.61;93.97
76345;DHT22;65160;50.504;3.666;2023-03-13T01:24:03;11.58;94.10
76345;DHT22;65160;50.504;3.666;2023-03-13T01:26:29;11.61;94.11
76345;DHT22;65160;50.504;3.666;2023-03-13T01:28:55;11.62;94.14
76345;DHT22;65160;50.504;3.666;2023-03-13T01:31:23;11.60;94.05
76345;DHT22;65160;50.504;3.666;2023-03-13T01:33:53;11.68;93.86
76345;DHT22;65160;50.504;3.666;2023-03-13T01:36:18;11.70;93.68
76345;DHT22;65160;50.504;3.666;2023-03-13T01:38:47;11.77;93.42
76345;DHT22;65160;50.504;3.666;2023-03-13T01:41:13;11.78;93.20
76345;DHT22;65160;50.504;3.666;2023-03-13T01:43:39;11.81;93.09
76345;DHT22;65160;50.504;3.666;2023-03-13T01:54:18;11.88;92.93
76345;DHT22;65160;50.504;3.666;2023-03-13T01:59:16;11.98;92.65
76345;DHT22;65160;50.504;3.666;2023-03-13T02:01:43;12.00;92.56
76345;DHT22;65160;50.504;3.666;2023-03-13T02:04:09;12.00;92.52
76345;DHT22;65160;50.504;3.666;2023-03-13T02:06:37;12.02;92.59
76345;DHT22;65160;50.504;3.666;2023-03-13T02:09:11;12.05;92.38
76345;DHT22;65160;50.504;3.666;2023-03-13T02:11:46;12.13;92.17
76345;DHT22;65160;50.504;3.666;2023-03-13T02:14:12;12.12;92.01
76345;DHT22;65160;50.504;3.666;2023-03-13T02:16:38;12.12;92.10
76345;DHT22;65160;50.504;3.666;2023-03-13T02:19:30;12.12;91.99
76345;DHT22;65160;50.504;3.666;2023-03-13T02:25:41;12.23;91.67
76345;DHT22;65160;50.504;3.666;2023-03-13T02:27:35;12.32;91.39
76345;DHT22;65160;50.504;3.666;2023-03-13T02:30:03;12.30;91.19
76345;DHT22;65160;50.504;3.666;2023-03-13T02:32:29;12.30;91.29
76345;DHT22;65160;50.504;3.666;2023-03-13T02:35:00;12.34;91.11
76345;DHT22;65160;50.504;3.666;2023-03-13T02:37:28;12.36;91.14
76345;DHT22;65160;50.504;3.666;2023-03-13T02:39:55;12.46;90.69
76345;DHT22;65160;50.504;3.666;2023-03-13T02:42:23;12.44;90.55
76345;DHT22;65160;50.504;3.666;2023-03-13T02:44:49;12.43;90.67
76345;DHT22;65160;50.504;3.666;2023-03-13T02:47:20;12.50;90.34
76345;DHT22;65160;50.504;3.666;2023-03-13T02:49:46;12.50;90.10
76345;DHT22;65160;50.504;3.666;2023-03-13T02:52:32;12.54;89.81
76345;DHT22;65160;50.504;3.666;2023-03-13T02:55:06;12.55;89.95
76345;DHT22;65160;50.504;3.666;2023-03-13T02:57:33;12.53;89.99
76345;DHT22;65160;50.504;3.666;2023-03-13T03:00:00;12.53;89.67
76345;DHT22;65160;50.504;3.666;2023-03-13T03:02:25;12.58;89.44
76345;DHT22;65160;50.504;3.666;2023-03-13T03:04:51;12.53;89.56
76345;DHT22;65160;50.504;3.666;2023-03-13T03:07:17;12.54;89.24
76345;DHT22;65160;50.504;3.666;2023-03-13T03:09:42;12.55;89.28
76345;DHT22;65160;50.504;3.666;2023-03-13T03:12:08;12.58;89.08
76345;DHT22;65160;50.504;3.666;2023-03-13T03:14:34;12.58;88.97
76345;DHT22;65160;50.504;3.666;2023-03-13T03:16:59;12.64;88.79
76345;DHT22;65160;50.504;3.666;2023-03-13T03:19:25;12.64;88.79
76345;DHT22;65160;50.504;3.666;2023-03-13T03:21:50;12.71;88.51
76345;DHT22;65160;50.504;3.666;2023-03-13T03:24:16;12.72;88.36
76345;DHT22;65160;50.504;3.666;2023-03-13T03:26:41;12.72;88.47
76345;DHT22;65160;50.504;3.666;2023-03-13T03:29:07;12.80;88.37
76345;DHT22;65160;50.504;3.666;2023-03-13T03:31:33;12.74;88.34
76345;DHT22;65160;50.504;3.666;2023-03-13T03:33:58;12.74;88.52
76345;DHT22;65160;50.504;3.666;2023-03-13T03:36:24;12.75;88.38
76345;DHT22;65160;50.504;3.666;2023-03-13T03:38:50;12.75;88.17
76345;DHT22;65160;50.504;3.666;2023-03-13T03:41:16;12.78;88.08
76345;DHT22;65160;50.504;3.666;2023-03-13T03:43:43;12.77;88.16
76345;DHT22;65160;50.504;3.666;2023-03-13T03:46:09;12.81;87.90
76345;DHT22;65160;50.504;3.666;2023-03-13T03:48:35;12.87;87.59
76345;DHT22;65160;50.504;3.666;2023-03-13T03:51:01;12.85;87.48
76345;DHT22;65160;50.504;3.666;2023-03-13T03:53:27;12.89;87.53
76345;DHT22;65160;50.504;3.666;2023-03-13T03:55:53;12.88;87.24
76345;DHT22;65160;50.504;3.666;2023-03-13T03:58:18;12.84;87.40
76345;DHT22;65160;50.504;3.666;2023-03-13T04:00:45;12.87;87.22
76345;DHT22;65160;50.504;3.666;2023-03-13T04:03:11;12.87;86.95
76345;DHT22;65160;50.504;3.666;2023-03-13T04:05:37;12.82;87.22
76345;DHT22;65160;50.504;3.666;2023-03-13T04:08:02;12.89;86.91
76345;DHT22;65160;50.504;3.666;2023-03-13T04:10:28;12.99;86.21
76345;DHT22;65160;50.504;3.666;2023-03-13T04:12:53;12.96;86.05
76345;DHT22;65160;50.504;3.666;2023-03-13T04:15:19;13.01;85.94
76345;DHT22;65160;50.504;3.666;2023-03-13T04:17:44;12.96;85.75
76345;DHT22;65160;50.504;3.666;2023-03-13T04:20:10;12.98;85.47
76345;DHT22;65160;50.504;3.666;2023-03-13T04:22:38;12.96;85.87
76345;DHT22;65160;50.504;3.666;2023-03-13T04:25:04;12.93;85.55
76345;DHT22;65160;50.504;3.666;2023-03-13T04:27:31;12.98;85.62
76345;DHT22;65160;50.504;3.666;2023-03-13T04:29:57;12.95;85.43
76345;DHT22;65160;50.504;3.666;2023-03-13T04:32:22;12.95;85.17
76345;DHT22;65160;50.504;3.666;2023-03-13T04:34:48;12.95;85.16
76345;DHT22;65160;50.504;3.666;2023-03-13T04:37:13;12.92;85.33
76345;DHT22;65160;50.504;3.666;2023-03-13T04:39:39;13.01;84.86
76345;DHT22;65160;50.504;3.666;2023-03-13T04:42:05;12.96;84.99
76345;DHT22;65160;50.504;3.666;2023-03-13T04:44:30;13.01;84.75
76345;DHT22;65160;50.504;3.666;2023-03-13T04:46:56;12.98;84.91
76345;DHT22;65160;50.504;3.666;2023-03-13T04:49:21;13.01;84.74
76345;DHT22;65160;50.504;3.666;2023-03-13T04:51:47;12.98;84.81
76345;DHT22;65160;50.504;3.666;2023-03-13T04:54:12;12.96;84.79
76345;DHT22;65160;50.504;3.666;2023-03-13T04:56:38;12.95;84.64
76345;DHT22;65160;50.504;3.666;2023-03-13T04:59:03;12.99;84.65
76345;DHT22;65160;50.504;3.666;2023-03-13T05:01:29;12.96;84.40
76345;DHT22;65160;50.504;3.666;2023-03-13T05:03:55;12.96;84.49
76345;DHT22;65160;50.504;3.666;2023-03-13T05:06:21;12.95;84.27
76345;DHT22;65160;50.504;3.666;2023-03-13T05:08:46;13.01;83.94
76345;DHT22;65160;50.504;3.666;2023-03-13T05:11:12;13.03;83.92
76345;DHT22;65160;50.504;3.666;2023-03-13T05:13:37;13.02;83.93
76345;DHT22;65160;50.504;3.666;2023-03-13T05:16:03;12.98;83.81
76345;DHT22;65160;50.504;3.666;2023-03-13T05:18:28;12.99;83.67
76345;DHT22;65160;50.504;3.666;2023-03-13T05:20:54;13.03;83.29
76345;DHT22;65160;50.504;3.666;2023-03-13T05:23:20;13.08;83.15
76345;DHT22;65160;50.504;3.666;2023-03-13T05:25:45;13.06;83.27
76345;DHT22;65160;50.504;3.666;2023-03-13T05:28:11;13.09;83.14
76345;DHT22;65160;50.504;3.666;2023-03-13T05:30:36;13.06;83.11
76345;DHT22;65160;50.504;3.666;2023-03-13T05:33:02;13.10;83.01
76345;DHT22;65160;50.504;3.666;2023-03-13T05:35:27;13.10;82.74
76345;DHT22;65160;50.504;3.666;2023-03-13T05:37:53;13.08;82.82
76345;DHT22;65160;50.504;3.666;2023-03-13T05:40:18;13.06;82.64
76345;DHT22;65160;50.504;3.666;2023-03-13T05:42:44;13.05;82.79
76345;DHT22;65160;50.504;3.666;2023-03-13T05:45:10;13.06;82.76
76345;DHT22;65160;50.504;3.666;2023-03-13T05:47:37;13.06;82.76
76345;DHT22;65160;50.504;3.666;2023-03-13T05:50:04;13.08;82.31
76345;DHT22;65160;50.504;3.666;2023-03-13T05:52:31;13.09;82.31
76345;DHT22;65160;50.504;3.666;2023-03-13T05:54:57;13.05;82.50
76345;DHT22;65160;50.504;3.666;2023-03-13T05:57:23;13.05;82.53
76345;DHT22;65160;50.504;3.666;2023-03-13T05:59:48;13.05;82.26
76345;DHT22;65160;50.504;3.666;2023-03-13T06:02:14;13.08;82.02
76345;DHT22;65160;50.504;3.666;2023-03-13T06:04:39;13.08;81.88
76345;DHT22;65160;50.504;3.666;2023-03-13T06:07:05;13.10;81.71
76345;DHT22;65160;50.504;3.666;2023-03-13T06:09:30;13.12;81.55
76345;DHT22;65160;50.504;3.666;2023-03-13T06:11:56;13.18;81.15
76345;DHT22;65160;50.504;3.666;2023-03-13T06:14:21;13.18;81.19
76345;DHT22;65160;50.504;3.666;2023-03-13T06:16:47;13.19;81.23
76345;DHT22;65160;50.504;3.666;2023-03-13T06:19:13;13.13;81.05
76345;DHT22;65160;50.504;3.666;2023-03-13T06:21:39;13.20;80.68
76345;DHT22;65160;50.504;3.666;2023-03-13T06:24:05;13.20;80.81
76345;DHT22;65160;50.504;3.666;2023-03-13T06:26:31;13.18;80.94
76345;DHT22;65160;50.504;3.666;2023-03-13T06:28:56;13.18;80.72
76345;DHT22;65160;50.504;3.666;2023-03-13T06:31:22;13.22;80.67
76345;DHT22;65160;50.504;3.666;2023-03-13T06:33:47;13.22;80.28
76345;DHT22;65160;50.504;3.666;2023-03-13T06:36:16;13.24;80.18
76345;DHT22;65160;50.504;3.666;2023-03-13T06:38:42;13.26;80.11
76345;DHT22;65160;50.504;3.666;2023-03-13T06:41:08;13.35;79.56
76345;DHT22;65160;50.504;3.666;2023-03-13T06:43:33;13.40;79.41
76345;DHT22;65160;50.504;3.666;2023-03-13T06:46:02;13.39;79.50
76345;DHT22;65160;50.504;3.666;2023-03-13T06:48:29;13.42;79.34
76345;DHT22;65160;50.504;3.666;2023-03-13T06:50:55;13.42;79.21
76345;DHT22;65160;50.504;3.666;2023-03-13T06:53:21;13.47;79.46
76345;DHT22;65160;50.504;3.666;2023-03-13T06:55:46;13.46;79.10
76345;DHT22;65160;50.504;3.666;2023-03-13T06:58:13;13.46;79.13
76345;DHT22;65160;50.504;3.666;2023-03-13T07:00:39;13.39;79.71
76345;DHT22;65160;50.504;3.666;2023-03-13T07:03:06;13.44;79.43
76345;DHT22;65160;50.504;3.666;2023-03-13T07:05:32;13.47;79.65
76345;DHT22;65160;50.504;3.666;2023-03-13T07:07:58;13.46;79.70
76345;DHT22;65160;50.504;3.666;2023-03-13T07:10:24;13.39;80.15
76345;DHT22;65160;50.504;3.666;2023-03-13T07:12:49;13.22;81.07
76345;DHT22;65160;50.504;3.666;2023-03-13T07:15:15;13.20;81.35
76345;DHT22;65160;50.504;3.666;2023-03-13T07:17:40;13.16;82.06
76345;DHT22;65160;50.504;3.666;2023-03-13T07:20:06;13.09;82.44
76345;DHT22;65160;50.504;3.666;2023-03-13T07:22:35;13.13;82.43
76345;DHT22;65160;50.504;3.666;2023-03-13T07:25:01;13.23;82.05
76345;DHT22;65160;50.504;3.666;2023-03-13T07:27:26;13.10;82.91
76345;DHT22;65160;50.504;3.666;2023-03-13T07:29:51;13.05;83.22
76345;DHT22;65160;50.504;3.666;2023-03-13T07:32:17;13.12;83.18
76345;DHT22;65160;50.504;3.666;2023-03-13T07:34:42;13.19;82.90
76345;DHT22;65160;50.504;3.666;2023-03-13T07:37:13;13.06;85.37
76345;DHT22;65160;50.504;3.666;2023-03-13T07:39:39;12.61;88.42
76345;DHT22;65160;50.504;3.666;2023-03-13T07:42:05;12.54;88.93
76345;DHT22;65160;50.504;3.666;2023-03-13T07:44:30;12.58;88.77
76345;DHT22;65160;50.504;3.666;2023-03-13T07:46:59;12.58;88.78
76345;DHT22;65160;50.504;3.666;2023-03-13T07:49:25;12.67;87.85
76345;DHT22;65160;50.504;3.666;2023-03-13T07:51:50;12.71;87.68
76345;DHT22;65160;50.504;3.666;2023-03-13T07:54:16;12.77;87.40
76345;DHT22;65160;50.504;3.666;2023-03-13T07:56:41;12.87;86.91
76345;DHT22;65160;50.504;3.666;2023-03-13T07:59:07;12.99;86.23
76345;DHT22;65160;50.504;3.666;2023-03-13T08:01:33;13.03;85.93
76345;DHT22;65160;50.504;3.666;2023-03-13T08:03:58;13.09;86.06
76345;DHT22;65160;50.504;3.666;2023-03-13T08:06:29;13.22;85.23
76345;DHT22;65160;50.504;3.666;2023-03-13T08:08:58;13.40;84.76
76345;DHT22;65160;50.504;3.666;2023-03-13T08:11:25;13.47;84.48
76345;DHT22;65160;50.504;3.666;2023-03-13T08:13:55;13.44;84.48
76345;DHT22;65160;50.504;3.666;2023-03-13T08:16:31;13.47;84.28
76345;DHT22;65160;50.504;3.666;2023-03-13T08:18:59;13.54;84.01
76345;DHT22;65160;50.504;3.666;2023-03-13T08:21:26;13.60;83.50
76345;DHT22;65160;50.504;3.666;2023-03-13T08:23:54;13.60;83.47
76345;DHT22;65160;50.504;3.666;2023-03-13T08:26:21;13.67;83.34
76345;DHT22;65160;50.504;3.666;2023-03-13T08:28:51;13.67;83.36
76345;DHT22;65160;50.504;3.666;2023-03-13T08:31:20;13.73;83.21
76345;DHT22;65160;50.504;3.666;2023-03-13T08:33:46;13.75;83.13
76345;DHT22;65160;50.504;3.666;2023-03-13T08:36:19;13.85;82.91
76345;DHT22;65160;50.504;3.666;2023-03-13T08:38:47;13.95;82.33
76345;DHT22;65160;50.504;3.666;2023-03-13T08:41:18;14.15;81.91
76345;DHT22;65160;50.504;3.666;2023-03-13T08:43:44;14.25;81.22
76345;DHT22;65160;50.504;3.666;2023-03-13T08:46:10;14.30;81.13
76345;DHT22;65160;50.504;3.666;2023-03-13T08:48:35;14.26;81.17
76345;DHT22;65160;50.504;3.666;2023-03-13T08:51:03;14.23;80.88
76345;DHT22;65160;50.504;3.666;2023-03-13T08:53:30;14.13;81.53
76345;DHT22;65160;50.504;3.666;2023-03-13T08:55:56;14.19;81.31
76345;DHT22;65160;50.504;3.666;2023-03-13T08:58:22;14.40;81.25
76345;DHT22;65160;50.504;3.666;2023-03-13T09:00:47;14.43;80.38
76345;DHT22;65160;50.504;3.666;2023-03-13T09:03:13;14.33;80.58
76345;DHT22;65160;50.504;3.666;2023-03-13T09:05:38;14.41;81.13
76345;DHT22;65160;50.504;3.666;2023-03-13T09:08:04;14.49;80.49
76345;DHT22;65160;50.504;3.666;2023-03-13T09:10:32;14.60;80.39
76345;DHT22;65160;50.504;3.666;2023-03-13T09:12:57;14.63;79.73
76345;DHT22;65160;50.504;3.666;2023-03-13T09:15:23;14.55;79.72
76345;DHT22;65160;50.504;3.666;2023-03-13T09:17:48;14.50;79.88
76345;DHT22;65160;50.504;3.666;2023-03-13T09:20:14;14.46;79.95
76345;DHT22;65160;50.504;3.666;2023-03-13T09:22:39;14.47;80.06
76345;DHT22;65160;50.504;3.666;2023-03-13T09:25:05;14.44;79.82
76345;DHT22;65160;50.504;3.666;2023-03-13T09:27:31;14.50;79.56
76345;DHT22;65160;50.504;3.666;2023-03-13T09:29:56;14.70;79.29
76345;DHT22;65160;50.504;3.666;2023-03-13T09:32:22;14.76;79.38
76345;DHT22;65160;50.504;3.666;2023-03-13T09:34:47;14.70;78.92
76345;DHT22;65160;50.504;3.666;2023-03-13T09:37:13;14.64;78.74
76345;DHT22;65160;50.504;3.666;2023-03-13T09:39:38;14.67;78.73
76345;DHT22;65160;50.504;3.666;2023-03-13T09:44:48;14.71;78.39
76345;DHT22;65160;50.504;3.666;2023-03-13T09:47:38;14.64;78.72
76345;DHT22;65160;50.504;3.666;2023-03-13T09:50:26;14.63;78.58
76345;DHT22;65160;50.504;3.666;2023-03-13T09:52:54;14.55;78.64
76345;DHT22;65160;50.504;3.666;2023-03-13T09:55:30;14.51;78.93
76345;DHT22;65160;50.504;3.666;2023-03-13T09:58:21;14.68;78.90
76345;DHT22;65160;50.504;3.666;2023-03-13T10:00:51;14.84;78.04
76345;DHT22;65160;50.504;3.666;2023-03-13T10:03:33;14.95;77.08
76345;DHT22;65160;50.504;3.666;2023-03-13T10:06:09;15.01;76.64
76345;DHT22;65160;50.504;3.666;2023-03-13T10:08:36;14.96;76.77
76345;DHT22;65160;50.504;3.666;2023-03-13T10:11:11;15.06;76.33
76345;DHT22;65160;50.504;3.666;2023-03-13T10:13:51;15.36;75.17
76345;DHT22;65160;50.504;3.666;2023-03-13T10:16:37;16.00;73.32
76345;DHT22;65160;50.504;3.666;2023-03-13T10:19:11;16.55;70.73
76345;DHT22;65160;50.504;3.666;2023-03-13T10:21:39;16.21;70.54
76345;DHT22;65160;50.504;3.666;2023-03-13T10:24:33;15.96;70.63
76345;DHT22;65160;50.504;3.666;2023-03-13T10:26:59;15.93;71.22
76345;DHT22;65160;50.504;3.666;2023-03-13T10:29:27;15.90;71.14
76345;DHT22;65160;50.504;3.666;2023-03-13T10:34:21;15.56;71.96
76345;DHT22;65160;50.504;3.666;2023-03-13T10:36:49;15.64;71.47
76345;DHT22;65160;50.504;3.666;2023-03-13T10:39:21;16.49;69.97
76345;DHT22;65160;50.504;3.666;2023-03-13T10:41:48;16.42;68.79
76345;DHT22;65160;50.504;3.666;2023-03-13T10:44:19;16.32;68.84
76345;DHT22;65160;50.504;3.666;2023-03-13T10:46:45;16.12;69.78
76345;DHT22;65160;50.504;3.666;2023-03-13T10:49:22;15.77;70.14
76345;DHT22;65160;50.504;3.666;2023-03-13T10:51:50;15.66;72.03
76345;DHT22;65160;50.504;3.666;2023-03-13T10:54:23;15.57;71.77
76345;DHT22;65160;50.504;3.666;2023-03-13T10:56:50;15.53;71.36
76345;DHT22;65160;50.504;3.666;2023-03-13T10:59:22;15.52;71.49
76345;DHT22;65160;50.504;3.666;2023-03-13T11:01:49;15.61;71.80
76345;DHT22;65160;50.504;3.666;2023-03-13T11:04:32;15.59;72.00
76345;DHT22;65160;50.504;3.666;2023-03-13T11:07:04;15.67;72.57
76345;DHT22;65160;50.504;3.666;2023-03-13T11:09:30;15.74;72.68
76345;DHT22;65160;50.504;3.666;2023-03-13T11:12:17;15.83;72.70
76345;DHT22;65160;50.504;3.666;2023-03-13T11:14:44;15.91;72.57
76345;DHT22;65160;50.504;3.666;2023-03-13T11:17:23;15.87;72.14
76345;DHT22;65160;50.504;3.666;2023-03-13T11:28:00;15.74;71.73
76345;DHT22;65160;50.504;3.666;2023-03-13T11:33:11;15.81;69.61
76345;DHT22;65160;50.504;3.666;2023-03-13T11:35:59;15.84;69.63
76345;DHT22;65160;50.504;3.666;2023-03-13T11:38:35;16.28;68.80
76345;DHT22;65160;50.504;3.666;2023-03-13T11:49:42;17.00;64.14
76345;DHT22;65160;50.504;3.666;2023-03-13T11:57:39;17.59;62.35
76345;DHT22;65160;50.504;3.666;2023-03-13T12:00:18;17.82;61.87
76345;DHT22;65160;50.504;3.666;2023-03-13T12:06:28;17.93;60.79
76345;DHT22;65160;50.504;3.666;2023-03-13T12:09:15;17.80;59.53
76345;DHT22;65160;50.504;3.666;2023-03-13T12:14:40;18.01;59.45
76345;DHT22;65160;50.504;3.666;2023-03-13T12:19:59;17.77;60.84
76345;DHT22;65160;50.504;3.666;2023-03-13T12:22:32;17.34;62.01
76345;DHT22;65160;50.504;3.666;2023-03-13T12:25:05;17.29;63.26
76345;DHT22;65160;50.504;3.666;2023-03-13T12:27:35;17.32;63.04
76345;DHT22;65160;50.504;3.666;2023-03-13T12:30:35;17.36;62.50
76345;DHT22;65160;50.504;3.666;2023-03-13T12:33:15;16.92;62.58
76345;DHT22;65160;50.504;3.666;2023-03-13T12:35:52;17.40;61.37
76345;DHT22;65160;50.504;3.666;2023-03-13T12:38:48;18.24;58.65
76345;DHT22;65160;50.504;3.666;2023-03-13T12:41:24;17.65;58.45
76345;DHT22;65160;50.504;3.666;2023-03-13T12:43:53;17.70;57.89
76345;DHT22;65160;50.504;3.666;2023-03-13T12:59:45;16.85;59.10
76345;DHT22;65160;50.504;3.666;2023-03-13T13:02:20;17.19;57.21
76345;DHT22;65160;50.504;3.666;2023-03-13T13:04:49;17.11;56.56
76345;DHT22;65160;50.504;3.666;2023-03-13T13:07:26;17.06;56.97
76345;DHT22;65160;50.504;3.666;2023-03-13T13:12:33;17.18;56.62
76345;DHT22;65160;50.504;3.666;2023-03-13T13:15:02;16.88;56.74
76345;DHT22;65160;50.504;3.666;2023-03-13T13:17:34;17.63;55.42
76345;DHT22;65160;50.504;3.666;2023-03-13T13:20:31;18.02;53.78
76345;DHT22;65160;50.504;3.666;2023-03-13T13:23:21;18.77;52.50
76345;DHT22;65160;50.504;3.666;2023-03-13T13:25:47;19.03;51.24
76345;DHT22;65160;50.504;3.666;2023-03-13T13:30:52;19.27;50.03
76345;DHT22;65160;50.504;3.666;2023-03-13T13:38:46;20.16;49.52
76345;DHT22;65160;50.504;3.666;2023-03-13T13:43:42;20.49;46.73
76345;DHT22;65160;50.504;3.666;2023-03-13T13:46:29;20.40;47.21
76345;DHT22;65160;50.504;3.666;2023-03-13T13:49:16;20.68;47.17
76345;DHT22;65160;50.504;3.666;2023-03-13T13:54:52;20.88;44.78
76345;DHT22;65160;50.504;3.666;2023-03-13T13:59:49;21.95;42.91
76345;DHT22;65160;50.504;3.666;2023-03-13T14:02:54;19.65;47.00
76345;DHT22;65160;50.504;3.666;2023-03-13T14:05:23;20.64;44.88
76345;DHT22;65160;50.504;3.666;2023-03-13T14:10:34;20.99;43.80
76345;DHT22;65160;50.504;3.666;2023-03-13T14:13:02;21.75;42.20
76345;DHT22;65160;50.504;3.666;2023-03-13T14:15:34;21.88;41.09
76345;DHT22;65160;50.504;3.666;2023-03-13T14:18:19;21.58;41.52
76345;DHT22;65160;50.504;3.666;2023-03-13T14:21:04;21.27;42.32
76345;DHT22;65160;50.504;3.666;2023-03-13T14:23:42;20.14;45.41
76345;DHT22;65160;50.504;3.666;2023-03-13T14:26:15;19.42;49.23
76345;DHT22;65160;50.504;3.666;2023-03-13T14:28:47;20.47;46.66
76345;DHT22;65160;50.504;3.666;2023-03-13T14:34:00;21.28;44.89
76345;DHT22;65160;50.504;3.666;2023-03-13T14:36:27;21.20;45.23
76345;DHT22;65160;50.504;3.666;2023-03-13T14:39:02;20.76;45.97
76345;DHT22;65160;50.504;3.666;2023-03-13T14:44:02;18.65;50.45
76345;DHT22;65160;50.504;3.666;2023-03-13T14:46:33;20.03;46.95
76345;DHT22;65160;50.504;3.666;2023-03-13T14:51:40;20.62;45.97
76345;DHT22;65160;50.504;3.666;2023-03-13T14:54:23;20.52;45.56
76345;DHT22;65160;50.504;3.666;2023-03-13T14:57:01;19.36;47.32
76345;DHT22;65160;50.504;3.666;2023-03-13T14:59:27;20.31;46.73
76345;DHT22;65160;50.504;3.666;2023-03-13T15:04:57;20.00;47.44
76345;DHT22;65160;50.504;3.666;2023-03-13T15:07:35;19.77;49.10
76345;DHT22;65160;50.504;3.666;2023-03-13T15:10:16;18.92;51.93
76345;DHT22;65160;50.504;3.666;2023-03-13T15:12:43;19.85;50.32
76345;DHT22;65160;50.504;3.666;2023-03-13T15:15:09;19.87;49.65
76345;DHT22;65160;50.504;3.666;2023-03-13T15:17:35;19.15;51.67
76345;DHT22;65160;50.504;3.666;2023-03-13T15:20:00;19.35;49.79
76345;DHT22;65160;50.504;3.666;2023-03-13T15:22:28;19.65;49.01
76345;DHT22;65160;50.504;3.666;2023-03-13T15:24:55;20.40;46.18
76345;DHT22;65160;50.504;3.666;2023-03-13T15:27:22;19.93;48.06
76345;DHT22;65160;50.504;3.666;2023-03-13T15:29:48;19.72;48.41
76345;DHT22;65160;50.504;3.666;2023-03-13T15:32:33;20.24;45.68
76345;DHT22;65160;50.504;3.666;2023-03-13T15:35:00;19.94;47.07
76345;DHT22;65160;50.504;3.666;2023-03-13T15:37:29;20.10;46.28
76345;DHT22;65160;50.504;3.666;2023-03-13T15:39:55;20.69;45.76
76345;DHT22;65160;50.504;3.666;2023-03-13T15:42:22;19.65;48.45
76345;DHT22;65160;50.504;3.666;2023-03-13T15:44:48;18.87;51.25
76345;DHT22;65160;50.504;3.666;2023-03-13T15:47:17;18.70;52.47
76345;DHT22;65160;50.504;3.666;2023-03-13T15:49:43;19.27;50.37
76345;DHT22;65160;50.504;3.666;2023-03-13T15:52:14;19.04;51.02
76345;DHT22;65160;50.504;3.666;2023-03-13T15:54:44;19.72;49.37
76345;DHT22;65160;50.504;3.666;2023-03-13T15:57:14;18.34;52.49
76345;DHT22;65160;50.504;3.666;2023-03-13T15:59:40;17.74;54.32
76345;DHT22;65160;50.504;3.666;2023-03-13T16:02:14;17.62;55.14
76345;DHT22;65160;50.504;3.666;2023-03-13T16:04:40;17.42;55.28
76345;DHT22;65160;50.504;3.666;2023-03-13T16:07:14;17.29;55.92
76345;DHT22;65160;50.504;3.666;2023-03-13T16:09:40;17.18;56.14
76345;DHT22;65160;50.504;3.666;2023-03-13T16:12:07;17.04;56.26
76345;DHT22;65160;50.504;3.666;2023-03-13T16:14:33;17.00;56.43
76345;DHT22;65160;50.504;3.666;2023-03-13T16:16:59;16.92;56.44
76345;DHT22;65160;50.504;3.666;2023-03-13T16:19:25;16.94;56.68
76345;DHT22;65160;50.504;3.666;2023-03-13T16:21:50;18.17;53.38
76345;DHT22;65160;50.504;3.666;2023-03-13T16:24:17;17.53;54.51
76345;DHT22;65160;50.504;3.666;2023-03-13T16:26:43;17.15;55.69
76345;DHT22;65160;50.504;3.666;2023-03-13T16:29:13;17.04;56.12
76345;DHT22;65160;50.504;3.666;2023-03-13T16:31:40;16.85;56.08
76345;DHT22;65160;50.504;3.666;2023-03-13T16:34:05;16.90;56.05
76345;DHT22;65160;50.504;3.666;2023-03-13T16:36:32;16.95;55.62
76345;DHT22;65160;50.504;3.666;2023-03-13T16:38:59;16.90;56.37
76345;DHT22;65160;50.504;3.666;2023-03-13T16:41:26;16.77;56.55
76345;DHT22;65160;50.504;3.666;2023-03-13T16:43:53;16.63;56.49
76345;DHT22;65160;50.504;3.666;2023-03-13T16:46:28;16.60;57.35
76345;DHT22;65160;50.504;3.666;2023-03-13T16:48:54;16.52;57.66
76345;DHT22;65160;50.504;3.666;2023-03-13T16:51:24;16.46;57.91
76345;DHT22;65160;50.504;3.666;2023-03-13T16:53:51;16.45;58.59
76345;DHT22;65160;50.504;3.666;2023-03-13T16:58:48;16.41;59.77
76345;DHT22;65160;50.504;3.666;2023-03-13T17:01:13;16.33;60.03
76345;DHT22;65160;50.504;3.666;2023-03-13T17:03:39;16.26;60.98
76345;DHT22;65160;50.504;3.666;2023-03-13T17:06:05;16.24;61.28
76345;DHT22;65160;50.504;3.666;2023-03-13T17:08:30;16.16;62.03
76345;DHT22;65160;50.504;3.666;2023-03-13T17:10:56;16.11;62.61
76345;DHT22;65160;50.504;3.666;2023-03-13T17:13:21;16.07;63.12
76345;DHT22;65160;50.504;3.666;2023-03-13T17:15:48;15.97;63.49
76345;DHT22;65160;50.504;3.666;2023-03-13T17:18:14;15.94;64.03
76345;DHT22;65160;50.504;3.666;2023-03-13T17:20:40;15.88;64.14